Time;durP1;ratioP1;P1;durP2;ratioP2;P2;SDS_P1;SDS_P2;PMS_P1;PMS_P2;Temp;Humidity;BMP_temperature;BMP_pressure;BME280_temperature;BME280_humidity;BME280_pressure;Samples;Min_cycle;Max_cycle;Signal;HPM_P1;HPM_P2
2022/07/08 00:00:08;;;;;;;;;;;10.70;99.90;;;;;;5114040;27;19916;-53
2022/07/08 00:02:51;;;;;;;;;;;10.60;99.90;;;;;;5124856;27;19918;-54
2022/07/08 00:05:31;;;;;;;;;;;10.50;99.90;;;;;;5083622;28;20366;-54
2022/07/08 00:08:11;;;;;;;;;;;10.40;99.90;;;;;;5124794;27;19912;-55
2022/07/08 00:10:51;;;;;;;;;;;10.30;99.90;;;;;;5108351;27;19912;-54
2022/07/08 00:13:31;;;;;;;;;;;10.20;99.90;;;;;;5124971;27;19918;-54
2022/07/08 00:16:11;;;;;;;;;;;10.00;99.90;;;;;;5103763;27;19920;-54
2022/07/08 00:18:50;;;;;;;;;;;10.00;99.90;;;;;;5103938;27;20307;-54
2022/07/08 00:21:30;;;;;;;;;;;9.80;99.90;;;;;;5124114;27;19916;-54
2022/07/08 00:24:10;;;;;;;;;;;9.70;99.90;;;;;;5104256;27;20194;-54
2022/07/08 00:26:50;;;;;;;;;;;9.60;99.90;;;;;;5123765;27;19912;-54
2022/07/08 00:29:30;;;;;;;;;;;9.60;99.90;;;;;;5124509;27;19912;-55
2022/07/08 00:32:10;;;;;;;;;;;9.70;99.90;;;;;;5123881;27;20310;-53
2022/07/08 00:34:50;;;;;;;;;;;9.60;99.90;;;;;;5124958;27;20372;-53
2022/07/08 00:37:29;;;;;;;;;;;9.60;99.90;;;;;;5123395;27;19912;-54
2022/07/08 00:40:11;;;;;;;;;;;9.50;99.90;;;;;;5124248;27;19912;-54
2022/07/08 00:42:53;;;;;;;;;;;9.40;99.90;;;;;;5124853;27;19922;-54
2022/07/08 00:45:33;;;;;;;;;;;9.40;99.90;;;;;;5125244;27;19912;-55
2022/07/08 00:48:13;;;;;;;;;;;9.40;99.90;;;;;;5124555;27;20370;-53
2022/07/08 00:50:53;;;;;;;;;;;9.30;99.90;;;;;;5107705;27;19912;-53
2022/07/08 00:53:34;;;;;;;;;;;9.30;99.90;;;;;;5124922;27;19912;-54
2022/07/08 00:56:15;;;;;;;;;;;9.20;99.90;;;;;;5122507;27;19911;-54
2022/07/08 00:58:54;;;;;;;;;;;9.30;99.90;;;;;;5104012;27;19926;-54
2022/07/08 01:01:34;;;;;;;;;;;9.20;99.90;;;;;;5124512;27;19918;-54
2022/07/08 01:04:14;;;;;;;;;;;9.10;99.90;;;;;;5124416;27;19918;-54
2022/07/08 01:06:54;;;;;;;;;;;9.20;99.90;;;;;;5103264;27;19965;-54
2022/07/08 01:09:34;;;;;;;;;;;9.10;99.90;;;;;;5124812;27;19916;-54
2022/07/08 01:12:13;;;;;;;;;;;9.10;99.90;;;;;;5124706;27;20282;-54
2022/07/08 01:14:53;;;;;;;;;;;9.10;99.90;;;;;;5104253;27;19916;-54
2022/07/08 01:17:41;;;;;;;;;;;9.00;99.90;;;;;;5124181;27;19919;-54
2022/07/08 01:20:21;;;;;;;;;;;9.20;99.90;;;;;;5112267;27;19919;-54
2022/07/08 01:23:01;;;;;;;;;;;9.10;99.90;;;;;;5124096;27;19916;-54
2022/07/08 01:25:41;;;;;;;;;;;8.90;99.90;;;;;;5124550;27;19911;-54
2022/07/08 01:28:20;;;;;;;;;;;8.90;99.90;;;;;;5103853;27;19926;-55
2022/07/08 01:31:02;;;;;;;;;;;8.80;99.90;;;;;;5103317;27;19954;-54
2022/07/08 01:33:42;;;;;;;;;;;8.80;99.90;;;;;;5124878;27;20008;-53
2022/07/08 01:36:21;;;;;;;;;;;8.80;99.90;;;;;;5157279;27;20296;-53
2022/07/08 01:39:01;;;;;;;;;;;8.80;99.90;;;;;;5083804;28;19912;-53
2022/07/08 01:41:41;;;;;;;;;;;8.80;99.90;;;;;;5124258;27;19912;-54
2022/07/08 01:44:21;;;;;;;;;;;8.80;99.90;;;;;;5119005;27;19916;-54
2022/07/08 01:47:01;;;;;;;;;;;8.70;99.90;;;;;;5103389;27;19916;-54
2022/07/08 01:49:41;;;;;;;;;;;8.50;99.90;;;;;;5118235;27;20328;-53
2022/07/08 01:52:20;;;;;;;;;;;8.50;99.90;;;;;;5124381;27;20380;-54
2022/07/08 01:55:00;;;;;;;;;;;8.30;99.90;;;;;;5124157;27;19911;-54
2022/07/08 01:57:40;;;;;;;;;;;8.20;99.90;;;;;;5102122;27;19912;-54
2022/07/08 02:00:20;;;;;;;;;;;8.20;99.90;;;;;;5124422;27;19916;-54
2022/07/08 02:03:00;;;;;;;;;;;8.20;99.90;;;;;;5103705;27;20331;-54
2022/07/08 02:05:39;;;;;;;;;;;8.30;99.90;;;;;;5124479;27;20300;-54
2022/07/08 02:08:20;;;;;;;;;;;8.50;99.90;;;;;;5083517;28;19913;-53
2022/07/08 02:13:57;;;;;;;;;;;8.40;99.90;;;;;;5124175;27;19920;-54
2022/07/08 02:16:36;;;;;;;;;;;8.50;99.90;;;;;;5103036;27;20326;-54
2022/07/08 02:19:16;;;;;;;;;;;8.40;99.90;;;;;;5123931;27;19912;-54
2022/07/08 02:21:56;;;;;;;;;;;8.40;99.90;;;;;;5124030;27;19912;-54
2022/07/08 02:24:36;;;;;;;;;;;8.50;99.90;;;;;;5124682;27;19911;-54
2022/07/08 02:27:18;;;;;;;;;;;8.40;99.90;;;;;;5123291;27;19923;-53
2022/07/08 02:29:59;;;;;;;;;;;8.40;99.90;;;;;;5103585;27;19949;-54
2022/07/08 02:32:39;;;;;;;;;;;8.50;99.90;;;;;;5124818;27;19915;-54
2022/07/08 02:35:18;;;;;;;;;;;8.50;99.90;;;;;;5144901;27;20315;-55
2022/07/08 02:37:58;;;;;;;;;;;8.50;99.90;;;;;;5152527;27;20135;-54
2022/07/08 02:40:38;;;;;;;;;;;8.50;99.90;;;;;;5143145;22;20276;-54
2022/07/08 02:43:18;;;;;;;;;;;8.60;99.90;;;;;;5145257;27;19915;-53
2022/07/08 02:45:58;;;;;;;;;;;8.60;99.90;;;;;;5123623;27;20578;-54
2022/07/08 02:48:38;;;;;;;;;;;8.70;99.90;;;;;;5104346;27;19912;-54
2022/07/08 02:51:17;;;;;;;;;;;8.80;99.90;;;;;;5123439;27;19915;-53
2022/07/08 02:53:57;;;;;;;;;;;8.80;99.90;;;;;;5124804;27;19912;-54
2022/07/08 02:56:37;;;;;;;;;;;8.60;99.90;;;;;;5122393;27;19915;-53
2022/07/08 02:59:17;;;;;;;;;;;8.40;99.90;;;;;;5124505;27;20157;-56
2022/07/08 03:01:57;;;;;;;;;;;8.40;99.90;;;;;;5124077;27;19911;-53
2022/07/08 03:04:36;;;;;;;;;;;8.40;99.90;;;;;;5124806;27;19912;-53
2022/07/08 03:07:16;;;;;;;;;;;8.40;99.90;;;;;;5103030;27;19912;-54
2022/07/08 03:09:56;;;;;;;;;;;8.40;99.90;;;;;;5123808;27;19916;-53
2022/07/08 03:12:36;;;;;;;;;;;8.50;99.90;;;;;;5160079;27;20296;-53
2022/07/08 03:15:16;;;;;;;;;;;8.60;99.90;;;;;;5123413;27;19915;-54
2022/07/08 03:17:56;;;;;;;;;;;8.80;99.90;;;;;;5122640;27;20373;-54
2022/07/08 03:20:36;;;;;;;;;;;8.90;99.90;;;;;;5124108;27;19912;-53
2022/07/08 03:23:15;;;;;;;;;;;8.90;99.90;;;;;;5083337;28;19916;-53
2022/07/08 03:25:55;;;;;;;;;;;9.00;99.90;;;;;;5123635;27;19911;-53
2022/07/08 03:28:35;;;;;;;;;;;9.20;99.90;;;;;;5103390;27;20355;-53
2022/07/08 03:31:15;;;;;;;;;;;9.30;99.90;;;;;;5124094;27;20416;-54
2022/07/08 03:33:55;;;;;;;;;;;9.40;99.90;;;;;;5124374;27;19921;-53
2022/07/08 03:36:35;;;;;;;;;;;9.60;99.90;;;;;;5103042;27;19934;-54
2022/07/08 03:39:17;;;;;;;;;;;9.70;99.90;;;;;;5124406;27;19922;-54
2022/07/08 03:41:57;;;;;;;;;;;9.90;99.90;;;;;;5123912;27;19915;-54
2022/07/08 03:44:37;;;;;;;;;;;10.00;99.90;;;;;;5123490;27;19915;-54
2022/07/08 03:47:17;;;;;;;;;;;10.00;99.90;;;;;;5123071;27;19926;-53
2022/07/08 03:49:57;;;;;;;;;;;10.10;99.90;;;;;;5103334;27;19923;-53
2022/07/08 03:52:37;;;;;;;;;;;10.20;99.90;;;;;;5124720;27;19912;-53
2022/07/08 03:55:16;;;;;;;;;;;10.10;99.90;;;;;;5122383;27;19916;-54
2022/07/08 03:57:57;;;;;;;;;;;10.10;99.90;;;;;;5121654;27;19915;-53
2022/07/08 04:00:38;;;;;;;;;;;10.20;99.90;;;;;;5112690;27;19926;-52
2022/07/08 04:03:17;;;;;;;;;;;10.30;99.90;;;;;;5104035;27;19946;-53
2022/07/08 04:05:57;;;;;;;;;;;10.30;99.90;;;;;;5103292;27;19953;-53
2022/07/08 04:08:37;;;;;;;;;;;10.40;99.90;;;;;;5104233;27;20363;-54
2022/07/08 04:11:17;;;;;;;;;;;10.30;99.90;;;;;;5079279;27;19930;-54
2022/07/08 04:13:57;;;;;;;;;;;10.40;99.90;;;;;;5150214;27;19912;-53
2022/07/08 04:16:37;;;;;;;;;;;10.40;99.90;;;;;;5122100;27;19912;-54
2022/07/08 04:19:16;;;;;;;;;;;10.60;99.90;;;;;;5123428;27;19916;-53
2022/07/08 04:21:56;;;;;;;;;;;10.60;99.90;;;;;;5123367;27;19949;-53
2022/07/08 04:24:36;;;;;;;;;;;10.60;99.90;;;;;;5124687;27;20363;-53
2022/07/08 04:27:16;;;;;;;;;;;10.60;99.90;;;;;;5121632;27;19916;-53
2022/07/08 04:29:56;;;;;;;;;;;10.70;99.90;;;;;;5098522;27;19912;-53
2022/07/08 04:32:36;;;;;;;;;;;10.70;99.90;;;;;;5124257;27;19911;-54
2022/07/08 04:35:15;;;;;;;;;;;10.80;99.90;;;;;;5123654;27;19920;-53
2022/07/08 04:37:55;;;;;;;;;;;10.90;99.90;;;;;;5123493;27;19916;-52
2022/07/08 04:40:35;;;;;;;;;;;11.00;99.90;;;;;;5124303;27;20770;-53
2022/07/08 04:43:15;;;;;;;;;;;11.10;99.90;;;;;;5104478;27;19919;-54
2022/07/08 04:45:55;;;;;;;;;;;11.20;99.90;;;;;;5123921;27;19912;-53
2022/07/08 04:48:35;;;;;;;;;;;11.20;99.90;;;;;;5124858;27;19916;-53
2022/07/08 04:51:14;;;;;;;;;;;11.40;99.90;;;;;;5107337;27;20017;-54
2022/07/08 04:53:56;;;;;;;;;;;11.40;99.90;;;;;;5145695;27;19960;-53
2022/07/08 04:56:36;;;;;;;;;;;11.50;99.90;;;;;;5101248;27;19926;-54
2022/07/08 04:59:15;;;;;;;;;;;11.70;99.90;;;;;;5124874;27;19935;-55
2022/07/08 05:01:55;;;;;;;;;;;11.90;99.90;;;;;;5124187;27;20426;-53
2022/07/08 05:04:35;;;;;;;;;;;12.00;99.90;;;;;;5104766;27;19916;-55
2022/07/08 05:07:15;;;;;;;;;;;12.10;99.90;;;;;;5103409;27;19913;-54
2022/07/08 05:09:55;;;;;;;;;;;12.10;99.90;;;;;;5153064;27;19923;-54
2022/07/08 05:12:35;;;;;;;;;;;12.20;99.90;;;;;;5124862;27;19912;-54
2022/07/08 05:15:14;;;;;;;;;;;12.30;99.90;;;;;;5124938;27;19924;-54
2022/07/08 05:17:54;;;;;;;;;;;12.40;99.90;;;;;;5090276;27;19930;-54
2022/07/08 05:20:34;;;;;;;;;;;12.40;99.90;;;;;;5073202;28;19913;-55
2022/07/08 05:23:14;;;;;;;;;;;12.60;99.90;;;;;;5124758;27;19920;-54
2022/07/08 05:25:54;;;;;;;;;;;12.80;99.90;;;;;;5103065;27;19919;-55
2022/07/08 05:28:34;;;;;;;;;;;13.00;99.90;;;;;;5124430;27;19911;-54
2022/07/08 05:31:13;;;;;;;;;;;13.10;99.90;;;;;;5087390;27;19917;-56
2022/07/08 05:33:53;;;;;;;;;;;13.30;99.90;;;;;;5124351;27;20383;-52
2022/07/08 05:36:33;;;;;;;;;;;13.50;99.90;;;;;;5123817;27;19912;-55
2022/07/08 05:39:13;;;;;;;;;;;13.80;99.90;;;;;;5124380;27;19912;-55
2022/07/08 05:41:53;;;;;;;;;;;14.00;99.90;;;;;;5105400;27;19932;-55
2022/07/08 05:44:33;;;;;;;;;;;14.30;99.90;;;;;;5124943;27;19989;-55
2022/07/08 05:47:13;;;;;;;;;;;14.50;99.90;;;;;;5123676;27;20361;-54
2022/07/08 05:49:55;;;;;;;;;;;14.70;99.90;;;;;;5099074;27;20463;-52
2022/07/08 05:52:35;;;;;;;;;;;14.80;99.90;;;;;;5146009;27;19911;-53
2022/07/08 05:55:15;;;;;;;;;;;15.20;99.90;;;;;;5123851;27;19924;-53
2022/07/08 05:57:55;;;;;;;;;;;15.50;99.90;;;;;;5120433;27;19912;-55
2022/07/08 06:00:35;;;;;;;;;;;15.90;99.90;;;;;;5112565;27;19916;-53
2022/07/08 06:03:15;;;;;;;;;;;16.10;99.90;;;;;;5103500;27;20427;-53
2022/07/08 06:05:54;;;;;;;;;;;16.20;99.90;;;;;;5102793;27;20363;-53
2022/07/08 06:08:34;;;;;;;;;;;16.40;99.90;;;;;;5124215;27;19912;-56
2022/07/08 06:11:14;;;;;;;;;;;16.50;99.90;;;;;;5123923;27;19918;-53
2022/07/08 06:13:54;;;;;;;;;;;16.70;99.90;;;;;;5123738;27;19916;-55
2022/07/08 06:16:34;;;;;;;;;;;16.80;99.90;;;;;;5122771;27;19953;-54
2022/07/08 06:19:13;;;;;;;;;;;17.00;99.90;;;;;;5103584;27;19926;-55
2022/07/08 06:21:53;;;;;;;;;;;16.90;99.90;;;;;;5103361;27;19926;-56
2022/07/08 06:24:33;;;;;;;;;;;17.00;99.90;;;;;;5103648;27;19912;-53
2022/07/08 06:27:13;;;;;;;;;;;17.10;99.90;;;;;;5122439;27;19929;-54
2022/07/08 06:29:53;;;;;;;;;;;17.10;99.90;;;;;;5078028;28;19913;-54
2022/07/08 06:32:33;;;;;;;;;;;16.90;99.90;;;;;;5124375;27;19931;-53
2022/07/08 06:35:12;;;;;;;;;;;16.70;99.90;;;;;;5123716;27;19922;-55
2022/07/08 06:37:52;;;;;;;;;;;16.60;99.90;;;;;;5123189;27;19916;-54
2022/07/08 06:40:32;;;;;;;;;;;16.50;99.90;;;;;;5097122;27;19916;-55
2022/07/08 06:43:12;;;;;;;;;;;16.30;99.90;;;;;;5103025;27;19920;-56
2022/07/08 06:45:52;;;;;;;;;;;16.60;99.90;;;;;;5124044;27;20324;-55
2022/07/08 06:48:32;;;;;;;;;;;16.60;99.90;;;;;;5126054;27;19912;-55
2022/07/08 06:51:12;;;;;;;;;;;16.60;99.90;;;;;;5096102;27;19912;-56
2022/07/08 06:56:49;;;;;;;;;;;15.80;99.90;;;;;;5105293;27;20154;-55
2022/07/08 06:59:29;;;;;;;;;;;15.80;99.90;;;;;;5084263;28;20402;-56
2022/07/08 07:02:10;;;;;;;;;;;16.00;99.90;;;;;;5104468;27;19954;-56
2022/07/08 07:04:50;;;;;;;;;;;16.10;99.90;;;;;;5126057;27;19912;-54
2022/07/08 07:07:30;;;;;;;;;;;15.90;99.90;;;;;;5124151;27;20280;-54
2022/07/08 07:10:10;;;;;;;;;;;16.10;99.90;;;;;;5101023;27;20474;-54
2022/07/08 07:12:51;;;;;;;;;;;16.40;99.90;;;;;;5125858;27;19916;-56
2022/07/08 07:15:31;;;;;;;;;;;16.60;99.90;;;;;;5125425;27;19912;-56
2022/07/08 07:18:11;;;;;;;;;;;17.20;99.90;;;;;;5125757;27;20372;-55
2022/07/08 07:20:50;;;;;;;;;;;17.70;99.90;;;;;;5111640;27;19916;-56
2022/07/08 07:23:30;;;;;;;;;;;18.00;99.90;;;;;;5123718;27;19915;-55
2022/07/08 07:26:10;;;;;;;;;;;17.90;99.90;;;;;;5124088;27;19915;-55
2022/07/08 07:28:50;;;;;;;;;;;18.00;99.90;;;;;;5125102;27;19919;-54
2022/07/08 07:31:30;;;;;;;;;;;18.20;99.90;;;;;;5105767;27;20320;-54
2022/07/08 07:34:09;;;;;;;;;;;18.10;99.90;;;;;;5125461;27;19912;-53
2022/07/08 07:36:49;;;;;;;;;;;18.20;99.90;;;;;;5125424;27;19918;-54
2022/07/08 07:39:29;;;;;;;;;;;18.30;99.90;;;;;;5104057;27;19957;-54
2022/07/08 07:42:09;;;;;;;;;;;18.10;99.90;;;;;;5105081;27;20307;-54
2022/07/08 07:44:49;;;;;;;;;;;18.10;99.90;;;;;;5125934;27;19918;-54
2022/07/08 07:47:29;;;;;;;;;;;18.20;99.90;;;;;;5125761;27;20354;-54
2022/07/08 07:50:12;;;;;;;;;;;18.20;99.90;;;;;;5118654;27;19912;-54
2022/07/08 07:52:51;;;;;;;;;;;18.20;99.90;;;;;;5105343;27;19926;-54
2022/07/08 07:55:31;;;;;;;;;;;18.00;99.90;;;;;;5125444;27;19918;-54
2022/07/08 07:58:11;;;;;;;;;;;17.70;99.90;;;;;;5126054;27;19911;-54
2022/07/08 08:00:51;;;;;;;;;;;17.50;99.90;;;;;;5067672;28;20363;-54
2022/07/08 08:03:31;;;;;;;;;;;17.40;99.90;;;;;;5146195;27;19960;-53
2022/07/08 08:06:11;;;;;;;;;;;17.10;99.90;;;;;;5125899;27;19915;-53
2022/07/08 08:08:50;;;;;;;;;;;17.00;99.90;;;;;;5126252;27;19912;-54
2022/07/08 08:11:30;;;;;;;;;;;17.20;99.90;;;;;;5105226;27;19915;-54
2022/07/08 08:14:10;;;;;;;;;;;18.00;99.90;;;;;;5105257;27;20311;-53
2022/07/08 08:16:50;;;;;;;;;;;18.60;99.90;;;;;;5125448;27;20269;-53
2022/07/08 08:19:31;;;;;;;;;;;18.80;99.90;;;;;;5124799;27;19911;-53
2022/07/08 08:22:11;;;;;;;;;;;19.00;99.90;;;;;;5126249;27;19915;-54
2022/07/08 08:24:51;;;;;;;;;;;18.70;99.90;;;;;;5125508;27;19927;-53
2022/07/08 08:27:31;;;;;;;;;;;18.10;99.90;;;;;;5146256;27;20161;-54
2022/07/08 08:30:11;;;;;;;;;;;17.80;99.90;;;;;;5098222;27;19927;-54
2022/07/08 08:32:52;;;;;;;;;;;17.50;99.90;;;;;;5125763;27;19911;-54
2022/07/08 08:35:32;;;;;;;;;;;17.20;99.90;;;;;;5125925;27;19968;-54
2022/07/08 08:38:12;;;;;;;;;;;16.90;99.90;;;;;;5105389;27;19926;-53
2022/07/08 08:40:55;;;;;;;;;;;16.60;99.90;;;;;;5118494;22;19939;-56
2022/07/08 08:43:38;;;;;;;;;;;16.30;99.90;;;;;;5124695;27;20428;-52
2022/07/08 08:46:22;;;;;;;;;;;16.30;99.90;;;;;;5103442;27;19958;-54
2022/07/08 08:49:03;;;;;;;;;;;16.40;99.90;;;;;;5103585;27;19926;-55
2022/07/08 08:51:45;;;;;;;;;;;16.80;99.90;;;;;;5108167;27;20438;-55
2022/07/08 08:54:25;;;;;;;;;;;17.00;99.90;;;;;;5124728;27;19912;-55
2022/07/08 08:57:06;;;;;;;;;;;17.20;99.90;;;;;;5105548;27;19912;-55
2022/07/08 08:59:47;;;;;;;;;;;17.40;99.90;;;;;;5124778;27;19912;-56
2022/07/08 09:02:26;;;;;;;;;;;17.80;99.90;;;;;;5123651;27;19912;-54
2022/07/08 09:05:07;;;;;;;;;;;18.40;99.90;;;;;;5125285;27;20295;-54
2022/07/08 09:07:47;;;;;;;;;;;18.90;99.90;;;;;;5124580;27;19912;-54
2022/07/08 09:10:27;;;;;;;;;;;19.40;99.90;;;;;;5080155;28;19912;-54
2022/07/08 09:13:10;;;;;;;;;;;20.00;99.90;;;;;;5104922;27;19954;-54
2022/07/08 09:15:51;;;;;;;;;;;20.10;99.90;;;;;;5104775;27;19912;-55
2022/07/08 09:18:32;;;;;;;;;;;19.60;99.90;;;;;;5124853;27;20297;-55
2022/07/08 09:21:13;;;;;;;;;;;19.40;99.90;;;;;;5124464;27;19911;-55
2022/07/08 09:23:53;;;;;;;;;;;18.80;99.90;;;;;;5124880;27;20311;-55
2022/07/08 09:26:33;;;;;;;;;;;18.40;99.90;;;;;;5147431;27;19915;-56
2022/07/08 09:29:12;;;;;;;;;;;18.10;99.90;;;;;;5147449;27;19915;-55
2022/07/08 09:31:53;;;;;;;;;;;17.90;99.90;;;;;;5124208;27;19919;-56
2022/07/08 09:34:35;;;;;;;;;;;17.70;99.90;;;;;;5104150;27;20320;-56
2022/07/08 09:37:16;;;;;;;;;;;17.60;99.90;;;;;;5123776;27;19915;-55
2022/07/08 09:39:57;;;;;;;;;;;17.70;99.90;;;;;;5124064;27;19915;-55
2022/07/08 09:42:40;;;;;;;;;;;18.00;99.90;;;;;;5125273;27;19912;-56
2022/07/08 09:45:19;;;;;;;;;;;18.30;99.90;;;;;;5124533;27;19915;-56
2022/07/08 09:48:03;;;;;;;;;;;18.10;99.90;;;;;;5123803;27;19912;-55
2022/07/08 09:50:44;;;;;;;;;;;18.10;99.90;;;;;;5117882;27;19916;-56
2022/07/08 09:53:26;;;;;;;;;;;18.00;99.90;;;;;;5104112;27;20430;-56
2022/07/08 09:56:08;;;;;;;;;;;17.80;99.90;;;;;;5102906;27;20530;-55
2022/07/08 09:58:48;;;;;;;;;;;18.00;99.90;;;;;;5102290;27;19926;-56
2022/07/08 10:01:29;;;;;;;;;;;18.30;99.90;;;;;;5110645;27;19922;-56
2022/07/08 10:04:10;;;;;;;;;;;18.80;99.90;;;;;;5123374;27;19915;-55
2022/07/08 10:06:50;;;;;;;;;;;19.70;99.90;;;;;;5123793;27;19918;-56
2022/07/08 10:09:31;;;;;;;;;;;20.70;99.90;;;;;;5125274;27;19934;-56
2022/07/08 10:12:14;;;;;;;;;;;21.40;99.90;;;;;;5085272;27;19927;-56
2022/07/08 10:14:55;;;;;;;;;;;22.00;99.90;;;;;;5124720;27;20376;-56
2022/07/08 10:17:40;;;;;;;;;;;22.30;99.90;;;;;;5123719;27;19920;-56
2022/07/08 10:20:22;;;;;;;;;;;22.20;97.70;;;;;;5080164;28;19913;-56
2022/07/08 10:23:06;;;;;;;;;;;21.50;99.20;;;;;;5124628;27;20227;-55
2022/07/08 10:25:47;;;;;;;;;;;20.90;99.90;;;;;;5123982;27;19916;-56
2022/07/08 10:28:35;;;;;;;;;;;20.50;99.90;;;;;;5145341;27;19925;-55
2022/07/08 10:31:21;;;;;;;;;;;20.00;99.90;;;;;;5103810;27;20359;-55
2022/07/08 10:34:01;;;;;;;;;;;19.10;99.90;;;;;;5124568;27;20307;-56
2022/07/08 10:36:49;;;;;;;;;;;18.20;99.90;;;;;;5124354;27;19912;-55
2022/07/08 10:39:29;;;;;;;;;;;17.80;99.90;;;;;;5124295;27;19912;-55
2022/07/08 10:42:11;;;;;;;;;;;17.80;99.90;;;;;;5116248;27;19912;-55
2022/07/08 10:44:53;;;;;;;;;;;18.00;99.90;;;;;;5124617;27;19912;-55
2022/07/08 10:47:35;;;;;;;;;;;18.00;99.90;;;;;;5103451;27;20265;-55
2022/07/08 10:50:23;;;;;;;;;;;18.40;99.90;;;;;;5123838;27;20332;-55
2022/07/08 10:53:07;;;;;;;;;;;19.10;99.90;;;;;;5083680;28;20382;-55
2022/07/08 10:55:48;;;;;;;;;;;19.80;99.90;;;;;;5103375;27;19981;-56
2022/07/08 10:58:48;;;;;;;;;;;20.40;99.90;;;;;;5103936;27;19954;-56
2022/07/08 11:01:29;;;;;;;;;;;20.90;99.90;;;;;;5123872;27;19912;-56
2022/07/08 11:04:21;;;;;;;;;;;21.30;99.90;;;;;;5081830;28;19916;-56
2022/07/08 11:07:15;;;;;;;;;;;20.90;99.90;;;;;;5123196;27;20319;-56
2022/07/08 11:09:57;;;;;;;;;;;21.00;99.90;;;;;;5124241;27;19916;-56
2022/07/08 11:12:39;;;;;;;;;;;21.00;99.90;;;;;;5124963;27;20246;-56
2022/07/08 11:15:19;;;;;;;;;;;21.00;99.90;;;;;;5124266;27;19919;-56
2022/07/08 11:17:59;;;;;;;;;;;21.20;99.90;;;;;;5103591;27;19973;-56
2022/07/08 11:20:40;;;;;;;;;;;21.10;99.90;;;;;;5118022;27;19912;-56
2022/07/08 11:23:21;;;;;;;;;;;20.80;99.90;;;;;;5124416;27;20434;-56
2022/07/08 11:26:02;;;;;;;;;;;20.30;99.90;;;;;;5101337;27;19912;-56
2022/07/08 11:28:42;;;;;;;;;;;20.50;99.90;;;;;;5122805;27;19919;-56
2022/07/08 11:31:26;;;;;;;;;;;20.50;99.90;;;;;;5135969;27;19953;-56
2022/07/08 11:34:18;;;;;;;;;;;20.80;99.90;;;;;;5153683;27;19911;-56
2022/07/08 11:36:59;;;;;;;;;;;21.20;99.90;;;;;;5123698;27;20355;-55
2022/07/08 11:39:40;;;;;;;;;;;21.20;99.20;;;;;;5123940;27;19950;-56
2022/07/08 11:42:21;;;;;;;;;;;21.30;99.90;;;;;;5124470;27;20377;-56
2022/07/08 11:45:05;;;;;;;;;;;21.50;99.80;;;;;;5124558;27;19912;-56
2022/07/08 11:47:45;;;;;;;;;;;21.90;95.60;;;;;;5122368;27;19911;-55
2022/07/08 11:50:25;;;;;;;;;;;21.60;98.30;;;;;;5118995;27;19912;-56
2022/07/08 11:53:05;;;;;;;;;;;21.50;96.70;;;;;;5124696;27;20327;-56
2022/07/08 11:55:45;;;;;;;;;;;21.80;92.60;;;;;;5123918;27;20388;-57
2022/07/08 11:58:26;;;;;;;;;;;21.60;94.40;;;;;;5124936;27;19915;-56
2022/07/08 12:01:06;;;;;;;;;;;22.20;91.10;;;;;;5093659;27;20487;-56
2022/07/08 12:03:46;;;;;;;;;;;23.00;88.70;;;;;;5122380;27;20385;-56
2022/07/08 12:06:26;;;;;;;;;;;23.70;77.80;;;;;;5123627;27;19999;-56
2022/07/08 12:09:12;;;;;;;;;;;23.40;75.40;;;;;;5103795;27;20181;-56
2022/07/08 12:11:53;;;;;;;;;;;23.50;69.90;;;;;;5087177;27;19958;-56
2022/07/08 12:14:34;;;;;;;;;;;23.70;68.40;;;;;;5124453;27;19922;-56
2022/07/08 12:17:22;;;;;;;;;;;24.00;68.90;;;;;;5123484;27;19912;-56
2022/07/08 12:20:03;;;;;;;;;;;24.00;62.70;;;;;;5120352;27;19915;-56
2022/07/08 12:22:44;;;;;;;;;;;24.00;64.40;;;;;;5123936;27;19922;-56
2022/07/08 12:25:24;;;;;;;;;;;24.30;64.10;;;;;;5123584;27;20341;-56
2022/07/08 12:28:04;;;;;;;;;;;24.10;64.20;;;;;;5121779;27;19930;-56
2022/07/08 12:30:43;;;;;;;;;;;23.20;64.40;;;;;;5123900;27;19920;-56
2022/07/08 12:33:27;;;;;;;;;;;22.30;68.40;;;;;;5125040;27;19919;-56
2022/07/08 12:36:21;;;;;;;;;;;21.60;74.90;;;;;;5121667;27;20299;-56
2022/07/08 12:39:12;;;;;;;;;;;21.30;81.80;;;;;;5124205;27;19912;-56
2022/07/08 12:42:01;;;;;;;;;;;21.20;81.40;;;;;;5107871;27;19926;-56
2022/07/08 12:44:41;;;;;;;;;;;21.10;88.10;;;;;;5138149;27;19911;-55
2022/07/08 12:47:22;;;;;;;;;;;21.30;91.70;;;;;;5141928;27;19935;-55
2022/07/08 12:50:05;;;;;;;;;;;22.00;88.30;;;;;;5102443;27;19916;-56
2022/07/08 12:52:45;;;;;;;;;;;22.80;83.80;;;;;;5123650;27;19912;-55
2022/07/08 12:55:25;;;;;;;;;;;23.60;73.90;;;;;;5123981;27;19918;-56
2022/07/08 12:58:05;;;;;;;;;;;24.00;65.50;;;;;;5103694;27;19926;-56
2022/07/08 13:00:45;;;;;;;;;;;23.90;65.30;;;;;;5117391;27;19922;-56
2022/07/08 13:03:24;;;;;;;;;;;24.30;65.70;;;;;;5147303;27;19915;-56
2022/07/08 13:06:04;;;;;;;;;;;24.20;60.90;;;;;;5102471;27;20442;-56
2022/07/08 13:08:44;;;;;;;;;;;24.00;63.30;;;;;;5123946;27;19912;-56
2022/07/08 13:11:24;;;;;;;;;;;23.70;62.20;;;;;;5103581;27;20180;-56
2022/07/08 13:14:04;;;;;;;;;;;23.50;63.20;;;;;;5124901;27;19915;-56
2022/07/08 13:16:44;;;;;;;;;;;23.00;63.10;;;;;;5123640;27;19920;-55
2022/07/08 13:19:23;;;;;;;;;;;22.80;67.40;;;;;;5103886;27;20326;-56
2022/07/08 13:22:03;;;;;;;;;;;23.20;67.00;;;;;;5124077;27;20377;-56
2022/07/08 13:24:43;;;;;;;;;;;23.50;63.20;;;;;;5103971;27;19926;-56
2022/07/08 13:27:23;;;;;;;;;;;23.50;64.20;;;;;;5144517;27;19911;-56
2022/07/08 13:30:03;;;;;;;;;;;23.20;63.30;;;;;;5104031;27;19916;-56
2022/07/08 13:32:44;;;;;;;;;;;23.20;63.00;;;;;;5084376;28;20085;-56
2022/07/08 13:35:24;;;;;;;;;;;23.10;68.50;;;;;;5124763;27;19916;-56
2022/07/08 13:38:04;;;;;;;;;;;23.10;65.80;;;;;;5124038;27;19912;-56
2022/07/08 13:40:44;;;;;;;;;;;23.20;64.30;;;;;;5097370;27;19921;-55
2022/07/08 13:43:23;;;;;;;;;;;23.40;63.20;;;;;;5104311;27;19926;-56
2022/07/08 13:46:03;;;;;;;;;;;23.00;65.80;;;;;;5124276;27;20059;-56
2022/07/08 13:48:43;;;;;;;;;;;22.50;66.80;;;;;;5124443;27;19912;-56
2022/07/08 13:51:23;;;;;;;;;;;22.00;70.60;;;;;;5145008;27;19911;-56
2022/07/08 13:54:03;;;;;;;;;;;22.10;71.20;;;;;;5124965;27;20118;-56
2022/07/08 13:56:43;;;;;;;;;;;22.10;69.00;;;;;;5123784;27;19912;-55
2022/07/08 13:59:23;;;;;;;;;;;22.30;68.10;;;;;;5125037;27;20373;-56
2022/07/08 14:02:02;;;;;;;;;;;22.40;69.00;;;;;;5121802;27;19922;-56
2022/07/08 14:04:42;;;;;;;;;;;22.20;70.30;;;;;;5104589;27;19926;-56
2022/07/08 14:07:22;;;;;;;;;;;22.30;65.00;;;;;;5102816;27;19946;-56
2022/07/08 14:10:14;;;;;;;;;;;22.70;63.40;;;;;;5124059;27;19912;-56
2022/07/08 14:12:53;;;;;;;;;;;22.80;61.90;;;;;;5125055;27;19912;-56
2022/07/08 14:15:33;;;;;;;;;;;22.70;61.80;;;;;;5124469;27;19918;-56
2022/07/08 14:18:13;;;;;;;;;;;22.60;64.00;;;;;;5124283;27;20077;-56
2022/07/08 14:20:53;;;;;;;;;;;22.80;62.30;;;;;;5095678;27;19931;-56
2022/07/08 14:23:33;;;;;;;;;;;22.70;60.60;;;;;;5124623;27;19912;-56
2022/07/08 14:26:13;;;;;;;;;;;22.40;62.20;;;;;;5123776;27;19916;-56
2022/07/08 14:28:54;;;;;;;;;;;22.40;63.70;;;;;;5124050;27;19912;-56
2022/07/08 14:31:34;;;;;;;;;;;22.70;63.40;;;;;;5124107;27;19918;-56
2022/07/08 14:34:15;;;;;;;;;;;22.90;61.90;;;;;;5166682;27;19925;-56
2022/07/08 14:36:55;;;;;;;;;;;23.50;61.10;;;;;;5124005;27;19911;-56
2022/07/08 14:39:35;;;;;;;;;;;23.70;64.00;;;;;;5124578;27;19918;-56
2022/07/08 14:42:15;;;;;;;;;;;23.80;61.60;;;;;;5124765;22;19928;-56
2022/07/08 14:44:55;;;;;;;;;;;23.80;60.50;;;;;;5104263;27;19913;-54
2022/07/08 14:47:34;;;;;;;;;;;23.40;59.90;;;;;;5103041;27;20422;-53
2022/07/08 14:50:14;;;;;;;;;;;23.10;65.90;;;;;;5124331;27;20288;-55
2022/07/08 14:52:54;;;;;;;;;;;23.00;62.80;;;;;;5104421;27;19946;-52
2022/07/08 14:55:35;;;;;;;;;;;23.10;60.40;;;;;;5103749;27;19945;-56
2022/07/08 14:58:15;;;;;;;;;;;23.10;62.00;;;;;;5083578;28;19912;-54
2022/07/08 15:00:55;;;;;;;;;;;23.20;58.70;;;;;;5123301;27;19911;-53
2022/07/08 15:03:35;;;;;;;;;;;23.10;58.70;;;;;;5122843;27;19918;-54
2022/07/08 15:06:15;;;;;;;;;;;22.80;58.50;;;;;;5123705;27;19916;-55
2022/07/08 15:08:55;;;;;;;;;;;22.90;59.60;;;;;;5124681;27;20184;-54
2022/07/08 15:11:34;;;;;;;;;;;23.50;57.90;;;;;;5124019;27;20331;-53
2022/07/08 15:14:14;;;;;;;;;;;24.00;56.60;;;;;;5104012;27;19926;-55
2022/07/08 15:16:54;;;;;;;;;;;24.50;57.80;;;;;;5123658;27;19911;-54
2022/07/08 15:19:34;;;;;;;;;;;25.00;54.10;;;;;;5124715;27;19918;-54
2022/07/08 15:22:14;;;;;;;;;;;25.40;53.00;;;;;;5112445;27;19926;-55
2022/07/08 15:24:54;;;;;;;;;;;25.50;50.90;;;;;;5124734;27;19916;-56
2022/07/08 15:27:34;;;;;;;;;;;25.40;49.20;;;;;;5123478;27;19920;-53
2022/07/08 15:30:13;;;;;;;;;;;25.10;50.90;;;;;;5078068;28;19916;-53
2022/07/08 15:32:53;;;;;;;;;;;26.30;50.00;;;;;;5141791;27;19915;-54
2022/07/08 15:35:33;;;;;;;;;;;27.90;46.20;;;;;;5118076;27;19924;-55
2022/07/08 15:38:13;;;;;;;;;;;28.40;41.70;;;;;;5103852;27;19965;-52
2022/07/08 15:40:52;;;;;;;;;;;27.00;42.60;;;;;;5143803;27;19912;-54